Avon, Illinois
Current Conditions -  °F | °C
As of 8:55 PM on Monday 22 Dec 2014 (Local Time) from KMQB Reporting Station
Haze Haze  
Wind Chill:   Ceiling: 200
Heat Index:   Visibility: 4mi
Dew Point:   Wind: 9mph
Humidity: 100%   Direction: 130°SE
Pressure: 29.52"   Gusts: NA
Location:  40.66°N, 90.43°W
Report Text: KMQB 230255Z AUTO 13008KT 4SM BR OVC002 07/07 A2952 RMK AO2 60002 T00670067
Loading
Personal Weather Stations






























Interactive Weather Map New forecast layout! Learn more

10-Day Weather Forecast

Advertisements
Track Severe Weather on mobile